sensor_id;sensor_type;location;lat;lon;timestamp;pressure;altitude;pressure_sealevel;temperature;humidity
64614;BME280;51025;37.772;-122.432;2024-02-04T00:02:24;100723.14;;;17.97;28.23
64614;BME280;51025;37.772;-122.432;2024-02-04T00:04:52;100720.31;;;17.98;28.40
64614;BME280;51025;37.772;-122.432;2024-02-04T00:07:20;100716.39;;;18.27;28.48
64614;BME280;51025;37.772;-122.432;2024-02-04T00:09:48;100715.85;;;17.53;28.46
64614;BME280;51025;37.772;-122.432;2024-02-04T00:12:17;100725.20;;;17.96;28.48
64614;BME280;51025;37.772;-122.432;2024-02-04T00:14:45;100721.27;;;17.87;28.43
64614;BME280;51025;37.772;-122.432;2024-02-04T00:17:13;100712.58;;;17.88;28.44
64614;BME280;51025;37.772;-122.432;2024-02-04T00:19:41;100702.19;;;17.82;28.39
64614;BME280;51025;37.772;-122.432;2024-02-04T00:22:10;100698.27;;;17.95;28.49
64614;BME280;51025;37.772;-122.432;2024-02-04T00:24:40;100700.04;;;17.87;28.60
64614;BME280;51025;37.772;-122.432;2024-02-04T00:27:08;100705.59;;;18.05;28.43
64614;BME280;51025;37.772;-122.432;2024-02-04T00:29:37;100720.05;;;17.91;28.39
64614;BME280;51025;37.772;-122.432;2024-02-04T00:32:06;100713.06;;;17.92;28.47
64614;BME280;51025;37.772;-122.432;2024-02-04T00:34:35;100714.56;;;17.99;28.62
64614;BME280;51025;37.772;-122.432;2024-02-04T00:37:04;100711.87;;;17.75;28.65
64614;BME280;51025;37.772;-122.432;2024-02-04T00:39:32;100718.10;;;18.17;28.42
64614;BME280;51025;37.772;-122.432;2024-02-04T00:42:00;100719.96;;;17.74;28.30
64614;BME280;51025;37.772;-122.432;2024-02-04T00:44:34;100728.28;;;18.17;28.23
64614;BME280;51025;37.772;-122.432;2024-02-04T00:47:02;100729.45;;;18.11;28.26
64614;BME280;51025;37.772;-122.432;2024-02-04T00:49:31;100724.06;;;17.86;28.50
64614;BME280;51025;37.772;-122.432;2024-02-04T00:51:59;100713.68;;;17.79;28.28
64614;BME280;51025;37.772;-122.432;2024-02-04T00:54:28;100702.72;;;18.20;28.20
64614;BME280;51025;37.772;-122.432;2024-02-04T00:56:56;100700.29;;;18.09;28.23
64614;BME280;51025;37.772;-122.432;2024-02-04T00:59:25;100702.74;;;18.07;28.18
64614;BME280;51025;37.772;-122.432;2024-02-04T01:01:52;100707.14;;;18.01;28.47
64614;BME280;51025;37.772;-122.432;2024-02-04T01:04:21;100703.80;;;17.95;28.54
64614;BME280;51025;37.772;-122.432;2024-02-04T01:06:49;100699.75;;;18.14;28.40
64614;BME280;51025;37.772;-122.432;2024-02-04T01:09:18;100694.88;;;17.82;28.63
64614;BME280;51025;37.772;-122.432;2024-02-04T01:11:46;100701.23;;;17.88;28.71
64614;BME280;51025;37.772;-122.432;2024-02-04T01:14:15;100699.39;;;17.86;28.77
64614;BME280;51025;37.772;-122.432;2024-02-04T01:16:43;100693.07;;;17.50;28.80
64614;BME280;51025;37.772;-122.432;2024-02-04T01:19:11;100693.47;;;17.72;28.94
64614;BME280;51025;37.772;-122.432;2024-02-04T01:21:40;100695.49;;;17.67;29.14
64614;BME280;51025;37.772;-122.432;2024-02-04T01:24:08;100698.38;;;17.85;29.00
64614;BME280;51025;37.772;-122.432;2024-02-04T01:26:37;100701.43;;;18.18;29.04
64614;BME280;51025;37.772;-122.432;2024-02-04T01:29:07;100718.63;;;17.79;28.94
64614;BME280;51025;37.772;-122.432;2024-02-04T01:31:36;100720.16;;;18.09;29.00
64614;BME280;51025;37.772;-122.432;2024-02-04T01:34:05;100715.49;;;17.59;29.18
64614;BME280;51025;37.772;-122.432;2024-02-04T01:36:33;100711.73;;;17.66;29.05
64614;BME280;51025;37.772;-122.432;2024-02-04T01:39:01;100705.55;;;17.65;29.19
64614;BME280;51025;37.772;-122.432;2024-02-04T01:41:30;100700.95;;;17.63;29.21
64614;BME280;51025;37.772;-122.432;2024-02-04T01:43:58;100698.16;;;18.05;29.18
64614;BME280;51025;37.772;-122.432;2024-02-04T01:46:26;100693.83;;;17.83;29.01
64614;BME280;51025;37.772;-122.432;2024-02-04T01:48:55;100688.78;;;17.65;29.22
64614;BME280;51025;37.772;-122.432;2024-02-04T01:51:24;100685.32;;;17.56;29.31
64614;BME280;51025;37.772;-122.432;2024-02-04T01:53:53;100693.61;;;18.18;29.21
64614;BME280;51025;37.772;-122.432;2024-02-04T01:56:21;100704.54;;;17.87;29.17
64614;BME280;51025;37.772;-122.432;2024-02-04T01:58:50;100704.83;;;17.44;29.51
64614;BME280;51025;37.772;-122.432;2024-02-04T02:01:20;100701.57;;;17.72;29.21
64614;BME280;51025;37.772;-122.432;2024-02-04T02:03:49;100695.48;;;17.47;29.42
64614;BME280;51025;37.772;-122.432;2024-02-04T02:06:17;100687.98;;;17.61;29.46
64614;BME280;51025;37.772;-122.432;2024-02-04T02:08:46;100687.22;;;17.50;29.45
64614;BME280;51025;37.772;-122.432;2024-02-04T02:11:20;100687.75;;;17.95;29.49
64614;BME280;51025;37.772;-122.432;2024-02-04T02:13:53;100680.75;;;17.70;29.34
64614;BME280;51025;37.772;-122.432;2024-02-04T02:16:25;100678.51;;;18.00;29.41
64614;BME280;51025;37.772;-122.432;2024-02-04T02:19:00;100679.47;;;17.77;29.41
64614;BME280;51025;37.772;-122.432;2024-02-04T02:21:44;100669.92;;;17.81;29.28
64614;BME280;51025;37.772;-122.432;2024-02-04T02:24:25;100660.17;;;17.73;29.36
64614;BME280;51025;37.772;-122.432;2024-02-04T02:26:54;100656.08;;;18.07;29.45
64614;BME280;51025;37.772;-122.432;2024-02-04T02:29:22;100649.27;;;18.13;29.45
64614;BME280;51025;37.772;-122.432;2024-02-04T02:31:51;100638.67;;;17.67;29.48
64614;BME280;51025;37.772;-122.432;2024-02-04T02:34:19;100629.89;;;18.41;29.25
64614;BME280;51025;37.772;-122.432;2024-02-04T02:36:55;100629.60;;;17.62;29.62
64614;BME280;51025;37.772;-122.432;2024-02-04T02:39:29;100642.84;;;18.39;29.52
64614;BME280;51025;37.772;-122.432;2024-02-04T02:42:03;100655.68;;;18.06;29.55
64614;BME280;51025;37.772;-122.432;2024-02-04T02:44:33;100662.44;;;17.82;29.48
64614;BME280;51025;37.772;-122.432;2024-02-04T02:47:03;100664.69;;;17.65;29.55
64614;BME280;51025;37.772;-122.432;2024-02-04T02:49:33;100667.19;;;17.60;29.58
64614;BME280;51025;37.772;-122.432;2024-02-04T02:52:02;100663.83;;;17.87;29.65
64614;BME280;51025;37.772;-122.432;2024-02-04T02:54:31;100661.03;;;17.43;29.84
64614;BME280;51025;37.772;-122.432;2024-02-04T02:56:59;100658.45;;;17.50;29.81
64614;BME280;51025;37.772;-122.432;2024-02-04T02:59:27;100655.60;;;17.96;29.69
64614;BME280;51025;37.772;-122.432;2024-02-04T03:01:55;100652.86;;;17.98;29.68
64614;BME280;51025;37.772;-122.432;2024-02-04T03:04:23;100655.28;;;17.66;29.69
64614;BME280;51025;37.772;-122.432;2024-02-04T03:06:51;100661.87;;;17.53;29.78
64614;BME280;51025;37.772;-122.432;2024-02-04T03:09:25;100660.67;;;17.94;29.80
64614;BME280;51025;37.772;-122.432;2024-02-04T03:11:53;100656.60;;;17.66;29.66
64614;BME280;51025;37.772;-122.432;2024-02-04T03:14:21;100652.89;;;17.68;29.69
64614;BME280;51025;37.772;-122.432;2024-02-04T03:16:50;100658.23;;;17.67;29.70
64614;BME280;51025;37.772;-122.432;2024-02-04T03:19:18;100652.63;;;17.60;29.68
64614;BME280;51025;37.772;-122.432;2024-02-04T03:21:48;100651.96;;;17.76;29.58
64614;BME280;51025;37.772;-122.432;2024-02-04T03:24:16;100647.70;;;17.67;29.57
64614;BME280;51025;37.772;-122.432;2024-02-04T03:26:44;100646.56;;;17.78;29.56
64614;BME280;51025;37.772;-122.432;2024-02-04T03:29:12;100646.98;;;17.87;29.75
64614;BME280;51025;37.772;-122.432;2024-02-04T03:31:41;100638.04;;;17.92;29.71
64614;BME280;51025;37.772;-122.432;2024-02-04T03:34:09;100637.43;;;17.99;29.67
64614;BME280;51025;37.772;-122.432;2024-02-04T03:36:38;100634.41;;;18.01;29.67
64614;BME280;51025;37.772;-122.432;2024-02-04T03:39:06;100628.13;;;17.77;29.85
64614;BME280;51025;37.772;-122.432;2024-02-04T03:41:35;100626.17;;;17.95;29.72
64614;BME280;51025;37.772;-122.432;2024-02-04T03:44:04;100624.45;;;17.46;29.85
64614;BME280;51025;37.772;-122.432;2024-02-04T03:46:32;100627.97;;;17.74;29.91
64614;BME280;51025;37.772;-122.432;2024-02-04T03:49:01;100631.61;;;17.75;29.93
64614;BME280;51025;37.772;-122.432;2024-02-04T03:51:29;100636.49;;;17.83;29.85
64614;BME280;51025;37.772;-122.432;2024-02-04T03:53:58;100633.74;;;18.10;29.58
64614;BME280;51025;37.772;-122.432;2024-02-04T03:56:26;100628.28;;;18.33;29.78
64614;BME280;51025;37.772;-122.432;2024-02-04T03:58:54;100629.28;;;17.60;29.72
64614;BME280;51025;37.772;-122.432;2024-02-04T04:01:23;100638.79;;;17.38;29.94
64614;BME280;51025;37.772;-122.432;2024-02-04T04:03:51;100640.38;;;17.85;29.83
64614;BME280;51025;37.772;-122.432;2024-02-04T04:06:20;100637.95;;;18.15;29.27
64614;BME280;51025;37.772;-122.432;2024-02-04T04:08:49;100640.55;;;17.50;29.86
64614;BME280;51025;37.772;-122.432;2024-02-04T04:11:17;100640.39;;;18.10;29.41
64614;BME280;51025;37.772;-122.432;2024-02-04T04:13:45;100642.72;;;18.05;29.64
64614;BME280;51025;37.772;-122.432;2024-02-04T04:16:13;100647.68;;;17.73;30.06
64614;BME280;51025;37.772;-122.432;2024-02-04T04:18:42;100642.55;;;17.82;29.33
64614;BME280;51025;37.772;-122.432;2024-02-04T04:21:10;100639.65;;;18.44;29.42
64614;BME280;51025;37.772;-122.432;2024-02-04T04:23:40;100638.04;;;18.76;29.58
64614;BME280;51025;37.772;-122.432;2024-02-04T04:26:15;100626.15;;;18.96;29.21
64614;BME280;51025;37.772;-122.432;2024-02-04T04:28:44;100619.20;;;18.95;29.05
64614;BME280;51025;37.772;-122.432;2024-02-04T04:31:12;100621.25;;;19.38;28.99
64614;BME280;51025;37.772;-122.432;2024-02-04T04:33:41;100624.37;;;19.42;29.00
64614;BME280;51025;37.772;-122.432;2024-02-04T04:36:10;100622.30;;;19.59;28.84
64614;BME280;51025;37.772;-122.432;2024-02-04T04:38:39;100616.72;;;19.56;28.89
64614;BME280;51025;37.772;-122.432;2024-02-04T04:41:08;100612.05;;;19.71;28.72
64614;BME280;51025;37.772;-122.432;2024-02-04T04:43:38;100612.64;;;19.00;29.25
64614;BME280;51025;37.772;-122.432;2024-02-04T04:46:06;100611.74;;;19.81;28.62
64614;BME280;51025;37.772;-122.432;2024-02-04T04:48:35;100611.69;;;19.76;28.64
64614;BME280;51025;37.772;-122.432;2024-02-04T04:51:03;100612.56;;;19.80;28.59
64614;BME280;51025;37.772;-122.432;2024-02-04T04:53:31;100607.90;;;18.98;29.02
64614;BME280;51025;37.772;-122.432;2024-02-04T04:55:59;100604.42;;;18.98;28.92
64614;BME280;51025;37.772;-122.432;2024-02-04T04:58:27;100596.21;;;18.87;28.77
64614;BME280;51025;37.772;-122.432;2024-02-04T05:00:55;100591.96;;;18.95;29.63
64614;BME280;51025;37.772;-122.432;2024-02-04T05:03:23;100586.43;;;20.01;29.69
64614;BME280;51025;37.772;-122.432;2024-02-04T05:05:51;100581.64;;;19.23;30.31
64614;BME280;51025;37.772;-122.432;2024-02-04T05:08:25;100579.64;;;20.18;30.30
64614;BME280;51025;37.772;-122.432;2024-02-04T05:10:54;100576.46;;;18.97;30.84
64614;BME280;51025;37.772;-122.432;2024-02-04T05:13:22;100571.74;;;19.61;30.46
64614;BME280;51025;37.772;-122.432;2024-02-04T05:15:50;100561.24;;;19.33;30.09
64614;BME280;51025;37.772;-122.432;2024-02-04T05:18:18;100558.27;;;19.55;30.47
64614;BME280;51025;37.772;-122.432;2024-02-04T05:20:46;100554.14;;;19.41;30.47
64614;BME280;51025;37.772;-122.432;2024-02-04T05:23:14;100549.01;;;19.20;30.63
64614;BME280;51025;37.772;-122.432;2024-02-04T05:25:49;100549.78;;;18.84;31.10
64614;BME280;51025;37.772;-122.432;2024-02-04T05:28:17;100549.58;;;18.91;30.94
64614;BME280;51025;37.772;-122.432;2024-02-04T05:30:45;100546.07;;;19.06;30.79
64614;BME280;51025;37.772;-122.432;2024-02-04T05:33:14;100544.10;;;18.89;30.90
64614;BME280;51025;37.772;-122.432;2024-02-04T05:35:43;100541.20;;;18.46;31.03
64614;BME280;51025;37.772;-122.432;2024-02-04T05:38:11;100527.97;;;19.89;30.31
64614;BME280;51025;37.772;-122.432;2024-02-04T05:40:41;100521.65;;;19.15;30.76
64614;BME280;51025;37.772;-122.432;2024-02-04T05:43:09;100516.61;;;19.67;30.41
64614;BME280;51025;37.772;-122.432;2024-02-04T05:45:38;100519.43;;;20.06;30.03
64614;BME280;51025;37.772;-122.432;2024-02-04T05:48:07;100510.17;;;18.92;30.67
64614;BME280;51025;37.772;-122.432;2024-02-04T05:50:35;100501.43;;;18.76;30.72
64614;BME280;51025;37.772;-122.432;2024-02-04T05:53:04;100494.05;;;18.69;30.70
64614;BME280;51025;37.772;-122.432;2024-02-04T05:55:33;100480.38;;;19.80;29.99
64614;BME280;51025;37.772;-122.432;2024-02-04T05:58:01;100469.95;;;19.45;29.85
64614;BME280;51025;37.772;-122.432;2024-02-04T06:00:30;100464.92;;;19.97;30.09
64614;BME280;51025;37.772;-122.432;2024-02-04T06:02:58;100468.81;;;19.51;29.77
64614;BME280;51025;37.772;-122.432;2024-02-04T06:05:26;100463.09;;;19.13;30.19
64614;BME280;51025;37.772;-122.432;2024-02-04T06:07:55;100454.37;;;18.79;30.38
64614;BME280;51025;37.772;-122.432;2024-02-04T06:10:24;100447.87;;;19.53;29.63
64614;BME280;51025;37.772;-122.432;2024-02-04T06:12:53;100437.84;;;19.44;29.70
64614;BME280;51025;37.772;-122.432;2024-02-04T06:15:21;100435.47;;;19.78;29.40
64614;BME280;51025;37.772;-122.432;2024-02-04T06:17:49;100423.66;;;19.90;29.29
64614;BME280;51025;37.772;-122.432;2024-02-04T06:20:17;100423.72;;;20.04;29.11
64614;BME280;51025;37.772;-122.432;2024-02-04T06:22:45;100415.38;;;19.18;29.52
64614;BME280;51025;37.772;-122.432;2024-02-04T06:25:13;100407.49;;;19.46;29.58
64614;BME280;51025;37.772;-122.432;2024-02-04T06:27:42;100406.24;;;19.55;29.46
64614;BME280;51025;37.772;-122.432;2024-02-04T06:30:11;100400.73;;;19.29;29.60
64614;BME280;51025;37.772;-122.432;2024-02-04T06:32:40;100405.68;;;19.47;29.39
64614;BME280;51025;37.772;-122.432;2024-02-04T06:35:09;100405.09;;;19.32;29.51
64614;BME280;51025;37.772;-122.432;2024-02-04T06:37:37;100398.70;;;20.33;28.66
64614;BME280;51025;37.772;-122.432;2024-02-04T06:40:12;100394.54;;;20.29;28.67
64614;BME280;51025;37.772;-122.432;2024-02-04T06:42:47;100386.91;;;19.97;28.90
64614;BME280;51025;37.772;-122.432;2024-02-04T06:45:15;100383.71;;;20.21;28.66
64614;BME280;51025;37.772;-122.432;2024-02-04T06:47:44;100379.66;;;20.10;28.79
64614;BME280;51025;37.772;-122.432;2024-02-04T06:50:12;100364.70;;;20.14;28.72
64614;BME280;51025;37.772;-122.432;2024-02-04T06:52:42;100354.28;;;19.30;29.34
64614;BME280;51025;37.772;-122.432;2024-02-04T06:55:11;100349.48;;;19.63;29.03
64614;BME280;51025;37.772;-122.432;2024-02-04T06:57:39;100348.03;;;19.87;28.80
64614;BME280;51025;37.772;-122.432;2024-02-04T07:00:08;100341.64;;;20.05;28.52
64614;BME280;51025;37.772;-122.432;2024-02-04T07:02:36;100334.01;;;19.48;28.91
64614;BME280;51025;37.772;-122.432;2024-02-04T07:05:05;100328.82;;;18.51;29.74
64614;BME280;51025;37.772;-122.432;2024-02-04T07:07:33;100327.66;;;18.50;29.76
64614;BME280;51025;37.772;-122.432;2024-02-04T07:10:02;100315.87;;;18.37;29.80
64614;BME280;51025;37.772;-122.432;2024-02-04T07:12:31;100308.43;;;18.66;29.92
64614;BME280;51025;37.772;-122.432;2024-02-04T07:14:59;100303.70;;;18.76;29.78
64614;BME280;51025;37.772;-122.432;2024-02-04T07:17:27;100304.12;;;18.43;29.66
64614;BME280;51025;37.772;-122.432;2024-02-04T07:19:55;100298.39;;;18.45;30.03
64614;BME280;51025;37.772;-122.432;2024-02-04T07:22:24;100299.68;;;18.54;30.09
64614;BME280;51025;37.772;-122.432;2024-02-04T07:24:53;100297.62;;;18.22;30.36
64614;BME280;51025;37.772;-122.432;2024-02-04T07:27:22;100300.63;;;18.26;30.32
64614;BME280;51025;37.772;-122.432;2024-02-04T07:29:50;100294.92;;;18.02;30.19
64614;BME280;51025;37.772;-122.432;2024-02-04T07:32:19;100275.57;;;18.26;30.22
64614;BME280;51025;37.772;-122.432;2024-02-04T07:34:47;100289.80;;;17.80;30.23
64614;BME280;51025;37.772;-122.432;2024-02-04T07:37:17;100287.68;;;17.53;30.50
64614;BME280;51025;37.772;-122.432;2024-02-04T07:39:46;100268.91;;;18.19;30.23
64614;BME280;51025;37.772;-122.432;2024-02-04T07:42:20;100261.06;;;18.30;30.39
64614;BME280;51025;37.772;-122.432;2024-02-04T07:44:48;100265.52;;;18.01;30.36
64614;BME280;51025;37.772;-122.432;2024-02-04T07:47:16;100253.49;;;18.35;30.31
64614;BME280;51025;37.772;-122.432;2024-02-04T07:49:44;100243.86;;;17.53;30.33
64614;BME280;51025;37.772;-122.432;2024-02-04T07:52:12;100245.38;;;18.35;30.14
64614;BME280;51025;37.772;-122.432;2024-02-04T07:54:41;100238.24;;;18.50;30.06
64614;BME280;51025;37.772;-122.432;2024-02-04T07:57:14;100228.22;;;18.02;30.42
64614;BME280;51025;37.772;-122.432;2024-02-04T07:59:43;100217.94;;;18.52;29.94
64614;BME280;51025;37.772;-122.432;2024-02-04T08:02:12;100216.65;;;18.39;30.07
64614;BME280;51025;37.772;-122.432;2024-02-04T08:04:41;100206.14;;;18.45;29.94
64614;BME280;51025;37.772;-122.432;2024-02-04T08:07:10;100200.60;;;18.28;30.09
64614;BME280;51025;37.772;-122.432;2024-02-04T08:09:38;100205.34;;;17.72;30.27
64614;BME280;51025;37.772;-122.432;2024-02-04T08:12:07;100208.24;;;18.35;29.92
64614;BME280;51025;37.772;-122.432;2024-02-04T08:14:35;100205.96;;;18.22;30.01
64614;BME280;51025;37.772;-122.432;2024-02-04T08:17:04;100198.09;;;17.72;30.45
64614;BME280;51025;37.772;-122.432;2024-02-04T08:19:33;100183.07;;;17.62;30.19
64614;BME280;51025;37.772;-122.432;2024-02-04T08:22:02;100187.36;;;17.88;30.30
64614;BME280;51025;37.772;-122.432;2024-02-04T08:24:32;100169.56;;;18.28;30.18
64614;BME280;51025;37.772;-122.432;2024-02-04T08:27:00;100186.27;;;18.17;30.25
64614;BME280;51025;37.772;-122.432;2024-02-04T08:29:28;100179.99;;;17.84;30.16
64614;BME280;51025;37.772;-122.432;2024-02-04T08:31:56;100156.27;;;17.47;30.44
64614;BME280;51025;37.772;-122.432;2024-02-04T08:34:24;100157.88;;;17.54;30.36
64614;BME280;51025;37.772;-122.432;2024-02-04T08:36:53;100150.84;;;17.48;30.44
64614;BME280;51025;37.772;-122.432;2024-02-04T08:39:21;100141.60;;;17.94;30.32
64614;BME280;51025;37.772;-122.432;2024-02-04T08:41:49;100148.73;;;17.49;30.38
64614;BME280;51025;37.772;-122.432;2024-02-04T08:44:17;100134.19;;;17.64;30.22
64614;BME280;51025;37.772;-122.432;2024-02-04T08:46:45;100133.98;;;17.65;30.26
64614;BME280;51025;37.772;-122.432;2024-02-04T08:49:14;100127.82;;;17.57;30.30
64614;BME280;51025;37.772;-122.432;2024-02-04T08:51:42;100129.64;;;17.03;30.45
64614;BME280;51025;37.772;-122.432;2024-02-04T08:54:11;100129.31;;;17.84;30.35
64614;BME280;51025;37.772;-122.432;2024-02-04T08:56:40;100108.50;;;17.80;30.33
64614;BME280;51025;37.772;-122.432;2024-02-04T08:59:09;100123.15;;;17.20;30.28
64614;BME280;51025;37.772;-122.432;2024-02-04T09:01:37;100129.89;;;17.45;30.30
64614;BME280;51025;37.772;-122.432;2024-02-04T09:04:06;100094.96;;;17.42;30.35
64614;BME280;51025;37.772;-122.432;2024-02-04T09:06:35;100079.50;;;17.74;30.33
64614;BME280;51025;37.772;-122.432;2024-02-04T09:09:03;100088.36;;;17.22;30.48
64614;BME280;51025;37.772;-122.432;2024-02-04T09:11:32;100077.93;;;17.91;30.16
64614;BME280;51025;37.772;-122.432;2024-02-04T09:14:00;100083.70;;;17.30;30.67
64614;BME280;51025;37.772;-122.432;2024-02-04T09:16:28;100072.16;;;17.62;30.32
64614;BME280;51025;37.772;-122.432;2024-02-04T09:18:57;100056.75;;;17.35;30.31
64614;BME280;51025;37.772;-122.432;2024-02-04T09:21:25;100065.56;;;17.48;30.45
64614;BME280;51025;37.772;-122.432;2024-02-04T09:23:53;100065.27;;;17.62;30.37
64614;BME280;51025;37.772;-122.432;2024-02-04T09:26:21;100036.14;;;17.20;30.33
64614;BME280;51025;37.772;-122.432;2024-02-04T09:28:49;100047.20;;;17.12;30.41
64614;BME280;51025;37.772;-122.432;2024-02-04T09:31:17;100038.46;;;17.65;30.29
64614;BME280;51025;37.772;-122.432;2024-02-04T09:33:45;100032.39;;;16.22;30.52
64614;BME280;51025;37.772;-122.432;2024-02-04T09:36:13;100036.76;;;17.55;30.30
64614;BME280;51025;37.772;-122.432;2024-02-04T09:38:41;100017.68;;;17.42;30.36
64614;BME280;51025;37.772;-122.432;2024-02-04T09:41:10;100015.00;;;17.63;30.57
64614;BME280;51025;37.772;-122.432;2024-02-04T09:43:39;100012.13;;;17.39;30.42
64614;BME280;51025;37.772;-122.432;2024-02-04T09:46:09;100009.29;;;17.40;30.44
64614;BME280;51025;37.772;-122.432;2024-02-04T09:48:39;100004.85;;;17.28;30.51
64614;BME280;51025;37.772;-122.432;2024-02-04T09:51:07;99987.09;;;17.22;30.54
64614;BME280;51025;37.772;-122.432;2024-02-04T09:53:36;100000.74;;;17.24;30.50
64614;BME280;51025;37.772;-122.432;2024-02-04T09:56:11;99973.88;;;17.12;30.57
64614;BME280;51025;37.772;-122.432;2024-02-04T09:58:40;99994.42;;;17.58;30.60
64614;BME280;51025;37.772;-122.432;2024-02-04T10:01:14;99987.91;;;17.35;30.39
64614;BME280;51025;37.772;-122.432;2024-02-04T10:03:42;99970.54;;;17.04;30.72
64614;BME280;51025;37.772;-122.432;2024-02-04T10:06:11;99989.55;;;17.03;30.69
64614;BME280;51025;37.772;-122.432;2024-02-04T10:08:40;99980.05;;;17.09;30.64
64614;BME280;51025;37.772;-122.432;2024-02-04T10:11:10;99987.74;;;17.53;30.65
64614;BME280;51025;37.772;-122.432;2024-02-04T10:13:48;99969.60;;;17.27;30.88
64614;BME280;51025;37.772;-122.432;2024-02-04T10:16:17;99947.90;;;17.16;30.59
64614;BME280;51025;37.772;-122.432;2024-02-04T10:18:47;99963.98;;;16.63;30.74
64614;BME280;51025;37.772;-122.432;2024-02-04T10:21:16;99962.33;;;16.61;30.76
64614;BME280;51025;37.772;-122.432;2024-02-04T10:23:45;99952.11;;;16.59;30.79
64614;BME280;51025;37.772;-122.432;2024-02-04T10:26:15;99944.82;;;17.01;30.69
64614;BME280;51025;37.772;-122.432;2024-02-04T10:28:45;99947.38;;;16.64;30.68
64614;BME280;51025;37.772;-122.432;2024-02-04T10:31:14;99945.68;;;17.36;30.75
64614;BME280;51025;37.772;-122.432;2024-02-04T10:33:43;99928.62;;;17.31;30.74
64614;BME280;51025;37.772;-122.432;2024-02-04T10:36:11;99943.66;;;17.13;30.95
64614;BME280;51025;37.772;-122.432;2024-02-04T10:38:40;99946.84;;;17.21;30.89
64614;BME280;51025;37.772;-122.432;2024-02-04T10:41:13;99935.92;;;17.67;30.47
64614;BME280;51025;37.772;-122.432;2024-02-04T10:43:44;99949.09;;;16.52;30.79
64614;BME280;51025;37.772;-122.432;2024-02-04T10:46:16;99917.22;;;17.28;30.88
64614;BME280;51025;37.772;-122.432;2024-02-04T10:48:51;99921.94;;;16.58;30.77
64614;BME280;51025;37.772;-122.432;2024-02-04T10:51:24;99933.12;;;16.93;30.76
64614;BME280;51025;37.772;-122.432;2024-02-04T10:53:55;99921.43;;;16.67;30.97
64614;BME280;51025;37.772;-122.432;2024-02-04T10:56:29;99892.59;;;17.37;30.74
64614;BME280;51025;37.772;-122.432;2024-02-04T10:58:58;99887.78;;;17.28;30.82
64614;BME280;51025;37.772;-122.432;2024-02-04T11:01:27;99887.28;;;17.45;30.68
64614;BME280;51025;37.772;-122.432;2024-02-04T11:03:56;99880.32;;;16.97;30.70
64614;BME280;51025;37.772;-122.432;2024-02-04T11:06:26;99868.81;;;16.76;30.89
64614;BME280;51025;37.772;-122.432;2024-02-04T11:08:56;99865.16;;;17.24;30.87
64614;BME280;51025;37.772;-122.432;2024-02-04T11:11:25;99872.50;;;17.20;30.90
64614;BME280;51025;37.772;-122.432;2024-02-04T11:13:58;99848.58;;;16.89;30.77
64614;BME280;51025;37.772;-122.432;2024-02-04T11:16:40;99854.84;;;17.09;30.98
64614;BME280;51025;37.772;-122.432;2024-02-04T11:19:23;99842.98;;;17.01;31.07
64614;BME280;51025;37.772;-122.432;2024-02-04T11:22:11;99845.10;;;16.93;31.15
64614;BME280;51025;37.772;-122.432;2024-02-04T11:24:58;99836.76;;;16.79;30.91
64614;BME280;51025;37.772;-122.432;2024-02-04T11:27:29;99811.85;;;16.94;31.15
64614;BME280;51025;37.772;-122.432;2024-02-04T11:29:58;99819.91;;;16.43;31.21
64614;BME280;51025;37.772;-122.432;2024-02-04T11:32:26;99806.79;;;17.08;30.99
64614;BME280;51025;37.772;-122.432;2024-02-04T11:34:54;99786.22;;;17.23;30.90
64614;BME280;51025;37.772;-122.432;2024-02-04T11:37:23;99785.93;;;17.13;30.98
64614;BME280;51025;37.772;-122.432;2024-02-04T11:39:52;99772.71;;;17.00;31.10
64614;BME280;51025;37.772;-122.432;2024-02-04T11:42:23;99749.04;;;16.78;31.29
64614;BME280;51025;37.772;-122.432;2024-02-04T11:45:07;99702.86;;;16.98;31.12
64614;BME280;51025;37.772;-122.432;2024-02-04T11:47:36;99719.11;;;16.89;31.21
64614;BME280;51025;37.772;-122.432;2024-02-04T11:50:06;99713.66;;;16.62;31.07
64614;BME280;51025;37.772;-122.432;2024-02-04T11:52:35;99704.08;;;17.32;31.10
64614;BME280;51025;37.772;-122.432;2024-02-04T11:55:06;99708.75;;;16.96;31.12
64614;BME280;51025;37.772;-122.432;2024-02-04T11:57:34;99718.73;;;16.67;31.01
64614;BME280;51025;37.772;-122.432;2024-02-04T12:00:04;99717.19;;;17.13;30.96
64614;BME280;51025;37.772;-122.432;2024-02-04T12:02:32;99735.14;;;16.49;31.21
64614;BME280;51025;37.772;-122.432;2024-02-04T12:05:01;99732.42;;;17.19;31.27
64614;BME280;51025;37.772;-122.432;2024-02-04T12:07:30;99731.81;;;16.88;31.25
64614;BME280;51025;37.772;-122.432;2024-02-04T12:09:58;99725.12;;;17.07;31.09
64614;BME280;51025;37.772;-122.432;2024-02-04T12:12:28;99743.98;;;16.90;31.23
64614;BME280;51025;37.772;-122.432;2024-02-04T12:14:56;99750.97;;;17.05;31.12
64614;BME280;51025;37.772;-122.432;2024-02-04T12:17:24;99740.72;;;16.83;31.32
64614;BME280;51025;37.772;-122.432;2024-02-04T12:19:53;99732.84;;;16.96;31.22
64614;BME280;51025;37.772;-122.432;2024-02-04T12:22:22;99717.60;;;16.89;31.33
64614;BME280;51025;37.772;-122.432;2024-02-04T12:24:50;99717.64;;;16.48;31.32
64614;BME280;51025;37.772;-122.432;2024-02-04T12:27:18;99698.08;;;16.93;31.28
64614;BME280;51025;37.772;-122.432;2024-02-04T12:29:50;99680.04;;;16.03;31.40
64614;BME280;51025;37.772;-122.432;2024-02-04T12:32:18;99690.46;;;17.05;31.22
64614;BME280;51025;37.772;-122.432;2024-02-04T12:34:47;99660.86;;;16.53;31.29